createdAt,value
2023-04-27T00:00:25.911Z,100.00
2023-04-27T00:02:55.499Z,100.00
2023-04-27T00:05:23.901Z,100.00
2023-04-27T00:07:52.122Z,100.00
2023-04-27T00:10:20.329Z,100.00
2023-04-27T00:12:48.498Z,100.00
2023-04-27T00:15:16.922Z,100.00
2023-04-27T00:17:45.059Z,100.00
2023-04-27T00:20:14.727Z,100.00
2023-04-27T00:22:42.869Z,100.00
2023-04-27T00:25:11.870Z,100.00
2023-04-27T00:27:40.302Z,100.00
2023-04-27T00:30:09.562Z,100.00
2023-04-27T00:32:37.682Z,100.00
2023-04-27T00:35:06.226Z,100.00
2023-04-27T00:37:35.674Z,100.00
2023-04-27T00:40:05.971Z,100.00
2023-04-27T00:42:34.478Z,100.00
2023-04-27T00:45:03.359Z,100.00
2023-04-27T00:47:31.838Z,100.00
2023-04-27T00:49:59.901Z,100.00
2023-04-27T00:52:28.200Z,100.00
2023-04-27T00:54:58.861Z,100.00
2023-04-27T00:57:26.962Z,100.00
2023-04-27T00:59:55.086Z,100.00
2023-04-27T01:02:23.312Z,100.00
2023-04-27T01:04:52.123Z,100.00
2023-04-27T01:07:20.684Z,100.00
2023-04-27T01:09:49.073Z,100.00
2023-04-27T01:12:18.568Z,100.00
2023-04-27T01:14:46.681Z,100.00
2023-04-27T01:17:15.208Z,100.00
2023-04-27T01:19:45.043Z,100.00
2023-04-27T01:22:15.210Z,100.00
2023-04-27T01:24:44.716Z,100.00
2023-04-27T01:27:12.767Z,100.00
2023-04-27T01:29:40.913Z,100.00
2023-04-27T01:32:10.308Z,100.00
2023-04-27T01:34:38.436Z,100.00
2023-04-27T01:37:07.218Z,100.00
2023-04-27T01:39:35.541Z,100.00
2023-04-27T01:42:05.243Z,100.00
2023-04-27T01:44:33.318Z,100.00
2023-04-27T01:47:01.862Z,100.00
2023-04-27T01:49:30.145Z,100.00
2023-04-27T01:51:58.550Z,100.00
2023-04-27T01:54:28.675Z,100.00
2023-04-27T01:56:58.713Z,100.00
2023-04-27T01:59:28.264Z,100.00
2023-04-27T02:01:56.631Z,100.00
2023-04-27T02:04:25.980Z,100.00
2023-04-27T02:06:54.070Z,100.00
2023-04-27T02:09:22.541Z,100.00
2023-04-27T02:11:50.710Z,100.00
2023-04-27T02:14:18.862Z,100.00
2023-04-27T02:16:49.877Z,100.00
2023-04-27T02:19:18.528Z,100.00
2023-04-27T02:21:46.723Z,100.00
2023-04-27T02:24:14.827Z,100.00
2023-04-27T02:26:43.572Z,100.00
2023-04-27T02:29:12.233Z,100.00
2023-04-27T02:31:41.089Z,100.00
2023-04-27T02:34:10.762Z,100.00
2023-04-27T02:36:38.821Z,100.00
2023-04-27T02:39:06.947Z,100.00
2023-04-27T02:41:35.859Z,100.00
2023-04-27T02:44:03.966Z,100.00
2023-04-27T02:46:32.956Z,100.00
2023-04-27T02:49:01.240Z,100.00
2023-04-27T02:51:32.066Z,100.00
2023-04-27T02:54:00.177Z,100.00
2023-04-27T02:56:28.350Z,100.00
2023-04-27T02:58:57.415Z,100.00
2023-04-27T03:01:25.667Z,100.00
2023-04-27T03:03:54.049Z,100.00
2023-04-27T03:06:22.324Z,100.00
2023-04-27T03:08:51.848Z,100.00
2023-04-27T03:11:19.880Z,100.00
2023-04-27T03:13:48.380Z,100.00
2023-04-27T03:16:16.660Z,100.00
2023-04-27T03:18:44.756Z,100.00
2023-04-27T03:21:13.119Z,100.00
2023-04-27T03:23:41.819Z,100.00
2023-04-27T03:26:13.384Z,100.00
2023-04-27T03:28:42.738Z,100.00
2023-04-27T03:31:11.483Z,100.00
2023-04-27T03:33:39.638Z,100.00
2023-04-27T03:36:08.406Z,100.00
2023-04-27T03:38:36.608Z,100.00
2023-04-27T03:41:05.770Z,100.00
2023-04-27T03:43:35.221Z,100.00
2023-04-27T03:46:04.378Z,100.00
2023-04-27T03:48:32.790Z,100.00
2023-04-27T03:51:01.749Z,100.00
2023-04-27T03:53:30.217Z,100.00
2023-04-27T03:55:58.285Z,100.00
2023-04-27T03:58:28.601Z,100.00
2023-04-27T04:01:24.947Z,100.00
2023-04-27T04:03:53.295Z,100.00
2023-04-27T04:06:21.635Z,100.00
2023-04-27T04:08:50.143Z,100.00
2023-04-27T04:11:18.784Z,100.00
2023-04-27T04:13:47.474Z,100.00
2023-04-27T04:16:15.869Z,100.00
2023-04-27T04:18:45.405Z,100.00
2023-04-27T04:21:13.515Z,100.00
2023-04-27T04:23:42.141Z,100.00
2023-04-27T04:26:10.285Z,100.00
2023-04-27T04:28:38.770Z,100.00
2023-04-27T04:31:09.878Z,100.00
2023-04-27T04:33:38.228Z,100.00
2023-04-27T04:36:08.882Z,100.00
2023-04-27T04:38:37.022Z,100.00
2023-04-27T04:41:07.326Z,100.00
2023-04-27T04:43:35.462Z,100.00
2023-04-27T04:46:07.502Z,100.00
2023-04-27T04:48:36.841Z,100.00
2023-04-27T04:51:06.489Z,100.00
2023-04-27T04:53:37.390Z,100.00
2023-04-27T04:56:11.853Z,100.00
2023-04-27T04:58:40.091Z,100.00
2023-04-27T05:01:08.752Z,100.00
2023-04-27T05:03:36.975Z,100.00
2023-04-27T05:06:05.368Z,100.00
2023-04-27T05:08:33.400Z,100.00
2023-04-27T05:11:02.824Z,100.00
2023-04-27T05:13:31.117Z,100.00
2023-04-27T05:15:59.543Z,100.00
2023-04-27T05:18:27.707Z,100.00
2023-04-27T05:20:56.417Z,100.00
2023-04-27T05:23:24.539Z,100.00
2023-04-27T05:25:52.726Z,100.00
2023-04-27T05:28:22.254Z,100.00
2023-04-27T05:30:50.285Z,100.00
2023-04-27T05:33:18.336Z,100.00
2023-04-27T05:35:46.493Z,100.00
2023-04-27T05:38:17.529Z,100.00
2023-04-27T05:40:45.727Z,100.00
2023-04-27T05:43:14.283Z,100.00
2023-04-27T05:45:43.823Z,100.00
2023-04-27T05:48:12.066Z,100.00
2023-04-27T05:50:40.149Z,100.00
2023-04-27T05:53:08.275Z,100.00
2023-04-27T05:55:37.647Z,100.00
2023-04-27T05:58:08.999Z,100.00
2023-04-27T06:00:38.471Z,98.02
2023-04-27T06:03:08.138Z,98.40
2023-04-27T06:05:36.521Z,98.49
2023-04-27T06:08:05.091Z,98.37
2023-04-27T06:10:33.188Z,96.34
2023-04-27T06:13:01.222Z,95.57
2023-04-27T06:15:29.376Z,94.29
2023-04-27T06:17:57.514Z,93.41
2023-04-27T06:20:27.081Z,91.87
2023-04-27T06:22:55.251Z,90.25
2023-04-27T06:25:26.624Z,89.26
2023-04-27T06:27:55.427Z,86.79
2023-04-27T06:30:23.701Z,85.27
2023-04-27T06:32:52.124Z,81.26
2023-04-27T06:35:21.646Z,80.11
2023-04-27T06:37:51.563Z,76.40
2023-04-27T06:40:19.768Z,76.74
2023-04-27T06:42:47.882Z,74.49
2023-04-27T06:45:15.988Z,67.86
2023-04-27T06:47:44.141Z,62.59
2023-04-27T06:50:12.507Z,63.67
2023-04-27T06:52:40.603Z,62.34
2023-04-27T06:55:10.991Z,60.27
2023-04-27T06:57:39.109Z,59.89
2023-04-27T07:00:08.960Z,58.84
2023-04-27T07:02:37.124Z,57.97
2023-04-27T07:05:06.117Z,59.45
2023-04-27T07:07:34.378Z,60.14
2023-04-27T07:10:02.750Z,56.82
2023-04-27T07:12:32.750Z,55.51
2023-04-27T07:15:00.881Z,58.93
2023-04-27T07:17:29.374Z,60.30
2023-04-27T07:19:57.662Z,59.97
2023-04-27T07:22:25.756Z,57.60
2023-04-27T07:24:53.836Z,56.29
2023-04-27T07:27:22.327Z,59.57
2023-04-27T07:29:51.789Z,59.27
2023-04-27T07:32:20.267Z,57.89
2023-04-27T07:34:53.360Z,57.67
2023-04-27T07:37:22.429Z,57.15
2023-04-27T07:39:52.045Z,59.45
2023-04-27T07:42:20.217Z,54.86
2023-04-27T07:44:50.466Z,55.51
2023-04-27T07:47:21.907Z,53.45
2023-04-27T07:49:49.989Z,55.01
2023-04-27T07:52:18.088Z,55.60
2023-04-27T07:54:46.374Z,57.37
2023-04-27T07:57:14.436Z,55.57
2023-04-27T07:59:42.525Z,52.13
2023-04-27T08:02:18.350Z,52.72
2023-04-27T08:04:49.979Z,51.35
2023-04-27T08:07:18.713Z,51.01
2023-04-27T08:09:47.599Z,51.18
2023-04-27T08:12:15.730Z,51.95
2023-04-27T08:14:44.300Z,50.47
2023-04-27T08:17:12.536Z,50.96
2023-04-27T08:19:41.004Z,50.96
2023-04-27T08:22:10.672Z,51.15
2023-04-27T08:24:38.736Z,52.40
2023-04-27T08:27:07.211Z,51.03
2023-04-27T08:29:35.503Z,49.37
2023-04-27T08:32:04.074Z,49.13
2023-04-27T08:34:32.974Z,50.81
2023-04-27T08:37:02.359Z,48.73
2023-04-27T08:39:31.889Z,48.50
2023-04-27T08:42:00.444Z,46.66
2023-04-27T08:44:28.913Z,48.05
2023-04-27T08:46:57.135Z,47.91
2023-04-27T08:49:25.221Z,48.69
2023-04-27T08:51:53.346Z,48.64
2023-04-27T08:54:21.973Z,48.46
2023-04-27T08:56:51.468Z,49.66
2023-04-27T08:59:19.539Z,48.58
2023-04-27T09:01:49.013Z,51.32
2023-04-27T09:04:18.024Z,48.16
2023-04-27T09:06:46.565Z,47.22
2023-04-27T09:09:23.197Z,49.47
2023-04-27T09:11:52.704Z,46.85
2023-04-27T09:14:21.304Z,44.91
2023-04-27T09:16:56.185Z,48.67
2023-04-27T09:19:27.636Z,46.21
2023-04-27T09:22:05.522Z,47.00
2023-04-27T09:24:33.688Z,47.37
2023-04-27T09:27:05.145Z,48.22
2023-04-27T09:29:34.630Z,49.47
2023-04-27T09:32:02.869Z,49.67
2023-04-27T09:34:40.836Z,47.83
2023-04-27T09:37:09.808Z,43.70
2023-04-27T09:39:38.050Z,42.89
2023-04-27T09:42:08.482Z,43.53
2023-04-27T09:44:36.608Z,45.04
2023-04-27T09:47:04.943Z,45.07
2023-04-27T09:49:33.851Z,43.96
2023-04-27T09:52:02.853Z,43.88
2023-04-27T09:54:32.332Z,43.91
2023-04-27T09:57:16.025Z,46.55
2023-04-27T09:59:58.862Z,42.58
2023-04-27T10:02:27.041Z,45.08
2023-04-27T10:05:18.916Z,42.02
2023-04-27T10:07:47.329Z,42.86
2023-04-27T10:10:19.193Z,41.09
2023-04-27T10:12:58.548Z,40.44
2023-04-27T10:15:30.240Z,42.37
2023-04-27T10:18:05.401Z,43.43
2023-04-27T10:20:34.213Z,41.88
2023-04-27T10:23:02.376Z,42.57
2023-04-27T10:25:31.718Z,40.84
2023-04-27T10:28:01.767Z,40.26
2023-04-27T10:30:33.313Z,42.35
2023-04-27T10:33:06.506Z,40.32
2023-04-27T10:35:34.827Z,39.05
2023-04-27T10:38:09.546Z,38.13
2023-04-27T10:40:38.149Z,43.50
2023-04-27T10:43:11.426Z,38.88
2023-04-27T10:45:39.494Z,39.48
2023-04-27T10:48:08.064Z,37.30
2023-04-27T10:50:37.047Z,35.85
2023-04-27T10:53:06.207Z,36.34
2023-04-27T10:55:35.064Z,38.31
2023-04-27T10:58:04.323Z,39.83
2023-04-27T11:00:34.744Z,40.29
2023-04-27T11:03:12.590Z,37.09
2023-04-27T11:05:41.358Z,35.49
2023-04-27T11:08:10.022Z,37.38
2023-04-27T11:10:40.158Z,37.08
2023-04-27T11:13:10.326Z,37.44
2023-04-27T11:15:50.079Z,36.13
2023-04-27T11:18:19.277Z,35.31
2023-04-27T11:20:49.104Z,38.67
2023-04-27T11:23:25.628Z,35.85
2023-04-27T11:25:54.491Z,37.25
2023-04-27T11:28:22.721Z,39.32
2023-04-27T11:30:58.240Z,38.62
2023-04-27T11:33:26.404Z,38.65
2023-04-27T11:35:54.510Z,38.68
2023-04-27T11:38:23.362Z,39.38
2023-04-27T11:41:00.519Z,39.23
2023-04-27T11:43:28.656Z,39.27
2023-04-27T11:45:58.987Z,39.70
2023-04-27T11:48:28.396Z,37.37
2023-04-27T11:50:59.193Z,39.22
2023-04-27T11:53:31.619Z,37.99
2023-04-27T11:56:01.159Z,39.00
2023-04-27T11:58:29.322Z,37.99
2023-04-27T12:00:59.317Z,40.34
2023-04-27T12:03:28.974Z,38.57
2023-04-27T12:06:04.150Z,41.24
2023-04-27T12:08:40.102Z,39.94
2023-04-27T12:11:08.241Z,38.49
2023-04-27T12:13:36.285Z,39.45
2023-04-27T12:16:06.980Z,37.87
2023-04-27T12:18:35.697Z,40.99
2023-04-27T12:21:07.740Z,43.13
2023-04-27T12:23:36.649Z,40.29
2023-04-27T12:26:05.199Z,41.97
2023-04-27T12:28:33.286Z,41.85
2023-04-27T12:31:04.008Z,39.77
2023-04-27T12:33:33.942Z,39.27
2023-04-27T12:36:02.027Z,40.24
2023-04-27T12:38:30.116Z,41.64
2023-04-27T12:40:58.193Z,41.48
2023-04-27T12:43:26.408Z,41.05
2023-04-27T12:45:55.037Z,42.32
2023-04-27T12:48:23.651Z,42.12
2023-04-27T12:50:53.209Z,41.83
2023-04-27T12:53:27.449Z,43.34
2023-04-27T12:55:55.945Z,41.75
2023-04-27T12:58:24.416Z,42.96
2023-04-27T13:00:52.955Z,42.25
2023-04-27T13:03:21.186Z,41.46
2023-04-27T13:05:49.794Z,42.86
2023-04-27T13:08:19.301Z,41.47
2023-04-27T13:10:47.403Z,42.13
2023-04-27T13:13:15.909Z,43.36
2023-04-27T13:15:44.116Z,44.70
2023-04-27T13:18:12.341Z,42.76
2023-04-27T13:20:40.463Z,42.02
2023-04-27T13:23:08.819Z,41.83
2023-04-27T13:25:38.271Z,42.24
2023-04-27T13:28:07.529Z,41.99
2023-04-27T13:30:35.814Z,41.85
2023-04-27T13:33:18.592Z,41.52
2023-04-27T13:35:50.545Z,42.74
2023-04-27T13:38:18.732Z,43.91
2023-04-27T13:40:48.613Z,43.88
2023-04-27T13:43:16.743Z,43.35
2023-04-27T13:45:45.396Z,42.98
2023-04-27T13:48:13.681Z,43.65
2023-04-27T13:50:41.942Z,44.03
2023-04-27T13:53:10.089Z,41.98
2023-04-27T13:55:38.657Z,44.53
2023-04-27T13:58:08.234Z,41.15
2023-04-27T14:00:37.446Z,42.29
2023-04-27T14:03:05.882Z,41.18
2023-04-27T14:05:34.117Z,41.23
2023-04-27T14:08:02.687Z,40.42
2023-04-27T14:10:31.149Z,42.72
2023-04-27T14:12:59.234Z,42.43
2023-04-27T14:15:29.193Z,40.20
2023-04-27T14:17:57.315Z,39.62
2023-04-27T14:20:27.312Z,41.28
2023-04-27T14:22:58.299Z,41.56
2023-04-27T14:25:27.315Z,41.69
2023-04-27T14:27:55.410Z,41.73
2023-04-27T14:30:24.031Z,40.32
2023-04-27T14:32:53.954Z,41.51
2023-04-27T14:35:23.758Z,41.36
2023-04-27T14:37:52.136Z,41.19
2023-04-27T14:40:20.483Z,43.84
2023-04-27T14:42:48.619Z,42.67
2023-04-27T14:45:18.957Z,42.48
2023-04-27T14:47:48.528Z,42.00
2023-04-27T14:50:18.170Z,43.85
2023-04-27T14:52:46.389Z,44.59
2023-04-27T14:55:15.307Z,45.01
2023-04-27T14:57:43.396Z,43.44
2023-04-27T15:00:14.651Z,44.98
2023-04-27T15:02:43.010Z,45.54
2023-04-27T15:05:11.507Z,45.78
2023-04-27T15:07:41.289Z,44.93
2023-04-27T15:10:10.906Z,46.63
2023-04-27T15:12:38.997Z,46.19
2023-04-27T15:15:10.709Z,45.81
2023-04-27T15:17:39.091Z,43.68
2023-04-27T15:20:08.688Z,45.12
2023-04-27T15:22:36.936Z,45.52
2023-04-27T15:25:08.423Z,48.46
2023-04-27T15:27:37.077Z,49.26
2023-04-27T15:30:06.251Z,49.28
2023-04-27T15:32:34.482Z,48.42
2023-04-27T15:35:02.621Z,49.04
2023-04-27T15:37:30.810Z,50.10
2023-04-27T15:39:59.222Z,49.64
2023-04-27T15:42:28.815Z,50.80
2023-04-27T15:44:57.375Z,49.36
2023-04-27T15:47:25.519Z,49.40
2023-04-27T15:49:57.440Z,50.71
2023-04-27T15:52:27.108Z,49.45
2023-04-27T15:54:55.991Z,48.78
2023-04-27T15:57:24.027Z,50.10
2023-04-27T15:59:53.713Z,47.90
2023-04-27T16:02:24.512Z,49.45
2023-04-27T16:04:57.685Z,48.45
2023-04-27T16:07:25.731Z,48.81
2023-04-27T16:09:58.483Z,49.72
2023-04-27T16:12:28.186Z,49.95
2023-04-27T16:14:58.139Z,50.25
2023-04-27T16:17:26.407Z,50.73
2023-04-27T16:19:54.599Z,50.85
2023-04-27T16:22:23.507Z,51.75
2023-04-27T16:24:51.876Z,51.65
2023-04-27T16:27:20.840Z,51.98
2023-04-27T16:29:49.362Z,51.25
2023-04-27T16:32:21.752Z,51.22
2023-04-27T16:34:49.878Z,51.32
2023-04-27T16:37:18.065Z,50.92
2023-04-27T16:39:46.530Z,51.95
2023-04-27T16:42:19.793Z,51.52
2023-04-27T16:44:47.986Z,52.29
2023-04-27T16:47:16.087Z,51.65
2023-04-27T16:49:45.914Z,52.38
2023-04-27T16:52:14.054Z,52.53
2023-04-27T16:54:42.273Z,52.92
2023-04-27T16:57:10.422Z,52.06
2023-04-27T16:59:38.646Z,53.42
2023-04-27T17:02:23.137Z,53.31
2023-04-27T17:04:53.952Z,53.38
2023-04-27T17:07:22.389Z,53.52
2023-04-27T17:09:50.506Z,54.08
2023-04-27T17:12:18.571Z,54.19
2023-04-27T17:14:46.795Z,54.22
2023-04-27T17:17:15.336Z,54.86
2023-04-27T17:19:43.433Z,54.86
2023-04-27T17:22:14.819Z,54.44
2023-04-27T17:24:42.862Z,54.86
2023-04-27T17:27:11.507Z,55.33
2023-04-27T17:29:44.163Z,55.33
2023-04-27T17:32:12.731Z,55.25
2023-04-27T17:34:42.983Z,55.81
2023-04-27T17:37:12.709Z,55.54
2023-04-27T17:39:41.307Z,57.23
2023-04-27T17:42:12.494Z,57.33
2023-04-27T17:44:42.383Z,58.71
2023-04-27T17:47:10.602Z,58.20
2023-04-27T17:49:38.658Z,58.74
2023-04-27T17:52:06.787Z,59.44
2023-04-27T17:54:36.274Z,59.87
2023-04-27T17:57:04.477Z,59.85
2023-04-27T17:59:33.173Z,59.99
2023-04-27T18:02:01.440Z,60.25
2023-04-27T18:04:29.708Z,60.65
2023-04-27T18:06:58.092Z,61.20
2023-04-27T18:09:27.111Z,62.21
2023-04-27T18:11:57.155Z,62.66
2023-04-27T18:14:25.626Z,62.64
2023-04-27T18:16:53.898Z,63.21
2023-04-27T18:19:22.057Z,62.90
2023-04-27T18:21:50.853Z,63.95
2023-04-27T18:24:19.217Z,64.32
2023-04-27T18:26:47.962Z,64.45
2023-04-27T18:29:18.011Z,65.57
2023-04-27T18:31:46.508Z,65.79
2023-04-27T18:34:14.936Z,64.82
2023-04-27T18:36:43.143Z,66.17
2023-04-27T18:39:11.303Z,66.86
2023-04-27T18:41:40.130Z,66.58
2023-04-27T18:44:08.270Z,67.93
2023-04-27T18:46:37.803Z,68.18
2023-04-27T18:49:05.875Z,68.42
2023-04-27T18:51:33.962Z,68.42
2023-04-27T18:54:02.040Z,68.61
2023-04-27T18:56:30.071Z,69.88
2023-04-27T18:59:00.339Z,70.14
2023-04-27T19:01:30.189Z,70.79
2023-04-27T19:03:59.883Z,70.40
2023-04-27T19:06:28.058Z,71.29
2023-04-27T19:08:56.571Z,71.96
2023-04-27T19:11:25.544Z,72.00
2023-04-27T19:13:53.974Z,73.62
2023-04-27T19:16:22.079Z,73.95
2023-04-27T19:18:50.288Z,73.87
2023-04-27T19:21:19.856Z,74.11
2023-04-27T19:23:48.009Z,73.59
2023-04-27T19:26:16.134Z,74.58
2023-04-27T19:28:44.206Z,74.44
2023-04-27T19:31:12.486Z,74.74
2023-04-27T19:33:46.835Z,74.91
2023-04-27T19:36:15.364Z,74.70
2023-04-27T19:38:44.850Z,75.91
2023-04-27T19:41:14.087Z,75.58
2023-04-27T19:43:42.292Z,75.43
2023-04-27T19:46:11.511Z,76.43
2023-04-27T19:48:42.508Z,77.03
2023-04-27T19:51:11.315Z,77.33
2023-04-27T19:53:39.368Z,77.68
2023-04-27T19:56:08.854Z,78.92
2023-04-27T19:58:37.270Z,79.15
2023-04-27T20:01:06.323Z,79.30
2023-04-27T20:03:35.631Z,79.31
2023-04-27T20:06:04.184Z,79.66
2023-04-27T20:08:34.162Z,79.14
2023-04-27T20:11:02.253Z,79.48
2023-04-27T20:13:31.716Z,80.73
2023-04-27T20:16:00.205Z,81.04
2023-04-27T20:18:31.633Z,80.86
2023-04-27T20:20:59.796Z,81.03
2023-04-27T20:23:27.870Z,82.07
2023-04-27T20:25:55.941Z,82.12
2023-04-27T20:28:25.840Z,81.33
2023-04-27T20:30:55.352Z,80.75
2023-04-27T20:33:23.461Z,80.86
2023-04-27T20:35:55.517Z,81.74
2023-04-27T20:38:25.108Z,81.61
2023-04-27T20:40:54.176Z,80.96
2023-04-27T20:43:22.336Z,81.23
2023-04-27T20:45:50.424Z,81.04
2023-04-27T20:48:19.884Z,82.60
2023-04-27T20:50:48.065Z,81.89
2023-04-27T20:53:16.396Z,82.94
2023-04-27T20:55:46.328Z,83.23
2023-04-27T20:58:14.375Z,83.36
2023-04-27T21:00:42.553Z,84.34
2023-04-27T21:03:10.983Z,85.07
2023-04-27T21:05:41.087Z,84.84
2023-04-27T21:08:09.575Z,83.93
2023-04-27T21:10:37.645Z,85.64
2023-04-27T21:13:05.878Z,86.13
2023-04-27T21:15:34.049Z,86.93
2023-04-27T21:18:03.974Z,87.15
2023-04-27T21:20:32.265Z,88.65
2023-04-27T21:23:01.788Z,88.19
2023-04-27T21:25:29.867Z,89.21
2023-04-27T21:27:57.976Z,89.10
2023-04-27T21:30:26.049Z,89.59
2023-04-27T21:32:54.169Z,89.97
2023-04-27T21:35:22.661Z,89.84
2023-04-27T21:37:50.780Z,90.26
2023-04-27T21:40:20.902Z,91.07
2023-04-27T21:42:49.008Z,90.70
2023-04-27T21:45:17.107Z,90.12
2023-04-27T21:47:46.174Z,91.23
2023-04-27T21:50:14.384Z,90.90
2023-04-27T21:52:42.518Z,91.30
2023-04-27T21:55:11.056Z,91.36
2023-04-27T21:57:40.543Z,91.29
2023-04-27T22:00:13.674Z,91.83
2023-04-27T22:02:51.304Z,91.63
2023-04-27T22:05:20.935Z,91.88
2023-04-27T22:07:49.082Z,92.49
2023-04-27T22:10:17.165Z,92.91
2023-04-27T22:12:46.906Z,92.45
2023-04-27T22:15:15.624Z,92.16
2023-04-27T22:17:44.038Z,92.45
2023-04-27T22:20:12.791Z,93.40
2023-04-27T22:22:40.859Z,93.65
2023-04-27T22:25:09.687Z,94.28
2023-04-27T22:27:45.126Z,94.83
2023-04-27T22:30:16.685Z,94.74
2023-04-27T22:32:44.970Z,92.91
2023-04-27T22:35:24.767Z,92.06
2023-04-27T22:37:55.792Z,90.88
2023-04-27T22:40:24.440Z,89.26
2023-04-27T22:42:53.031Z,88.34
2023-04-27T22:45:22.777Z,86.74
2023-04-27T22:47:51.038Z,86.51
2023-04-27T22:50:19.328Z,85.10
2023-04-27T22:52:48.344Z,84.87
2023-04-27T22:55:16.753Z,84.73
2023-04-27T22:57:44.836Z,83.91
2023-04-27T23:00:13.617Z,82.60
2023-04-27T23:02:43.427Z,82.66
2023-04-27T23:05:12.423Z,83.50
2023-04-27T23:07:41.056Z,82.98
2023-04-27T23:10:10.431Z,82.49
2023-04-27T23:12:38.815Z,82.13
2023-04-27T23:15:07.993Z,82.59
2023-04-27T23:17:36.267Z,82.09
2023-04-27T23:20:20.467Z,81.87
2023-04-27T23:22:55.268Z,79.87
2023-04-27T23:25:23.418Z,78.80
2023-04-27T23:27:52.543Z,79.73
2023-04-27T23:30:21.540Z,79.90
2023-04-27T23:32:49.810Z,79.90
2023-04-27T23:35:20.097Z,79.64
2023-04-27T23:37:48.262Z,79.11
2023-04-27T23:40:16.517Z,79.41
2023-04-27T23:42:44.966Z,79.67
2023-04-27T23:45:13.689Z,78.91
2023-04-27T23:47:42.279Z,79.05
2023-04-27T23:50:13.472Z,78.97
2023-04-27T23:52:42.970Z,79.42
2023-04-27T23:55:11.354Z,79.34
2023-04-27T23:57:39.460Z,79.65
